Florence Villa, Florida
Current Conditions -  °F | °C
As of 10:53 PM on Saturday 25 Oct 2014 (Local Time) from KGIF Reporting Station
Clear Clear  
Wind Chill: 64°   Ceiling: Unl
Heat Index: 64°   Visibility: 10mi
Dew Point: 52°   Wind: 6mph
Humidity: 65%   Direction: 350°N
Pressure: 30.02"   Gusts: NA
Location:  28.0577°N, 81.7042°W
Report Text: KGIF 260253Z AUTO 35005KT 10SM CLR 18/11 A3002 RMK AO2 SLP162 T01780111 51014
Loading
Personal Weather Stations






























Interactive Weather Map
Tropical Storm Tracking
New forecast layout! Learn more

10-Day Weather Forecast

Advertisements
Track Severe Weather on mobile